LTBI/ESK METAR and TAF weather

Enter ICAO airport designator
Station Type Date Time Source
LTBI METAR 2020/01/17 13:50 UTC NOAA

LTBI 171350Z 29004KT 260V320 6000 FEW035 02/M01 Q1021 NOSIG RMK RWY08 28007KT


Station Type Date Time Source
LTBI Decoded METAR 2020/01/17 13:50 UTC NOAA

Eskisehir, Turkey (LTBI) 39-47N 030-34E 785M
Jan 17, 2020 - 08:50 AM EST / 2020.01.17 1350 UTC
Wind: from the WNW (290 degrees) at 5 MPH (4 KT) (direction variable):0
Visibility: 3 mile(s):0
Sky conditions: mostly clear
Temperature: 35 F (2 C)
Windchill: 30 F (-1 C):1
Dew Point: 30 F (-1 C)
Relative Humidity: 80%
Pressure (altimeter): 30.15 in. Hg (1021 hPa)
ob: LTBI 171350Z 29004KT 260V320 6000 FEW035 02/M01 Q1021 NOSIG RMK RWY08 28007KT
cycle: 14

Station Type Date Time Source
LTBI TAF 2012/05/11 09:09 UTC NOAA

TAF LTBI 110740Z 1109/1121 VRB02KT 6000 -SHRA BKN030 BKN090
TEMPO 1112/1116 33015KT 4000 -TSRA FEW025CB BKN030

Example: see airport list